Time;durP1;ratioP1;P1;durP2;ratioP2;P2;SDS_P1;SDS_P2;PMS_P1;PMS_P2;Temp;Humidity;BMP_temperature;BMP_pressure;BME280_temperature;BME280_humidity;BME280_pressure;Samples;Min_cycle;Max_cycle;Signal;HPM_P1;HPM_P2
2024/01/03 00:01:20;;;;;;;11.68;2.50;;;11.60;1.00;;;;;;5110366;28;20024;-65
2024/01/03 00:03:46;;;;;;;20.60;2.40;;;11.60;1.00;;;;;;5110313;28;20020;-65
2024/01/03 00:06:14;;;;;;;11.45;2.72;;;11.50;1.00;;;;;;5110229;28;20020;-67
2024/01/03 00:08:39;;;;;;;15.02;2.40;;;11.50;1.00;;;;;;5110368;28;20049;-66
2024/01/03 00:11:05;;;;;;;16.63;3.03;;;11.60;1.00;;;;;;5110188;28;20032;-66
2024/01/03 00:16:24;;;;;;;13.27;2.78;;;11.60;1.00;;;;;;5111282;27;20296;-64
2024/01/03 00:18:58;;;;;;;12.50;2.22;;;11.50;1.00;;;;;;5111376;28;20036;-64
2024/01/03 00:21:26;;;;;;;15.45;2.58;;;11.50;1.00;;;;;;5111248;28;20034;-65
2024/01/03 00:24:02;;;;;;;16.73;2.65;;;11.40;1.00;;;;;;5111185;28;20028;-64
2024/01/03 00:26:29;;;;;;;15.30;2.50;;;11.40;1.00;;;;;;5111148;28;20077;-66
2024/01/03 00:28:57;;;;;;;12.13;2.63;;;11.50;1.00;;;;;;5110795;28;20539;-65
2024/01/03 00:31:42;;;;;;;11.98;2.95;;;11.50;99.90;;;;;;5111153;28;20036;-67
2024/01/03 00:36:59;;;;;;;18.70;2.50;;;11.40;1.00;;;;;;5111171;27;20426;-64
2024/01/03 00:39:27;;;;;;;16.23;2.47;;;11.50;99.90;;;;;;5111123;28;20028;-64
2024/01/03 00:41:53;;;;;;;13.52;2.60;;;11.50;99.90;;;;;;5111284;28;20028;-63
2024/01/03 00:44:18;;;;;;;11.93;2.85;;;11.40;99.90;;;;;;5110883;28;20591;-65
2024/01/03 00:46:44;;;;;;;18.83;3.33;;;11.40;99.90;;;;;;5111317;28;20040;-64
2024/01/03 00:49:11;;;;;;;12.40;2.53;;;11.40;99.90;;;;;;5111142;28;20030;-66
2024/01/03 00:51:37;;;;;;;17.88;2.88;;;11.40;99.90;;;;;;5111116;28;20027;-66
2024/01/03 00:54:03;;;;;;;13.65;3.00;;;11.30;1.00;;;;;;5110808;28;20032;-66
2024/01/03 00:56:28;;;;;;;14.57;2.35;;;11.30;1.00;;;;;;5110660;28;20031;-66
2024/01/03 00:58:54;;;;;;;10.93;3.05;;;11.20;1.00;;;;;;5110827;28;20546;-66
2024/01/03 01:04:51;;;;;;;16.55;2.90;;;11.20;1.00;;;;;;5110921;28;20389;-66
2024/01/03 01:07:17;;;;;;;17.75;3.15;;;11.00;1.00;;;;;;5110927;28;20058;-68
2024/01/03 01:09:42;;;;;;;14.80;2.75;;;10.90;1.00;;;;;;5110793;28;20114;-67
2024/01/03 01:12:08;;;;;;;13.50;3.10;;;10.80;1.00;;;;;;5110582;28;20024;-66
2024/01/03 01:14:34;;;;;;;19.45;2.65;;;10.80;1.00;;;;;;5110056;28;20027;-67
2024/01/03 01:16:59;;;;;;;15.30;3.28;;;10.80;1.00;;;;;;5110608;28;20387;-66
2024/01/03 01:19:25;;;;;;;15.63;2.97;;;10.70;15.70;;;;;;5110603;28;20027;-66
2024/01/03 01:21:50;;;;;;;18.60;3.08;;;10.60;21.50;;;;;;5110722;28;20038;-66
2024/01/03 01:24:16;;;;;;;12.95;2.60;;;10.50;29.50;;;;;;5110649;28;20024;-66
2024/01/03 01:26:42;;;;;;;9.95;2.28;;;10.50;33.60;;;;;;5110582;28;20027;-65
2024/01/03 01:29:07;;;;;;;19.77;3.05;;;10.40;37.30;;;;;;5110189;28;20035;-65
2024/01/03 01:31:33;;;;;;;20.60;3.00;;;10.40;49.30;;;;;;5110160;28;20028;-66
2024/01/03 01:33:59;;;;;;;13.05;2.55;;;10.30;51.80;;;;;;5110248;28;20028;-66
2024/01/03 01:36:24;;;;;;;15.27;2.50;;;10.30;56.80;;;;;;5109667;28;20040;-65
2024/01/03 01:38:50;;;;;;;14.05;3.30;;;10.30;54.10;;;;;;5110055;28;20428;-64
2024/01/03 01:41:15;;;;;;;14.30;2.50;;;10.30;53.50;;;;;;5110211;28;20024;-65
2024/01/03 01:43:41;;;;;;;14.60;3.45;;;10.30;48.70;;;;;;5110096;28;20031;-65
2024/01/03 01:46:07;;;;;;;13.35;3.42;;;10.30;45.70;;;;;;5109510;28;20085;-65
2024/01/03 01:48:34;;;;;;;17.30;2.95;;;10.40;39.70;;;;;;5095931;28;20058;-65
2024/01/03 01:50:59;;;;;;;15.32;3.03;;;10.40;34.20;;;;;;5096189;28;20073;-64
2024/01/03 01:53:25;;;;;;;15.07;3.45;;;10.50;19.90;;;;;;5096371;28;20024;-64
2024/01/03 01:55:51;;;;;;;14.73;3.78;;;10.60;16.90;;;;;;5096319;28;20512;-64
2024/01/03 01:58:18;;;;;;;15.98;3.72;;;10.60;21.30;;;;;;5096113;28;20016;-64
2024/01/03 02:00:44;;;;;;;10.60;2.90;;;10.60;20.50;;;;;;5096210;28;20412;-65
2024/01/03 02:03:11;;;;;;;11.23;2.70;;;10.50;26.00;;;;;;5096170;28;20027;-67
2024/01/03 02:05:37;;;;;;;14.40;2.78;;;10.50;29.50;;;;;;5096040;28;20036;-66
2024/01/03 02:08:07;;;;;;;14.50;2.92;;;10.60;28.70;;;;;;5096071;28;20032;-66
2024/01/03 02:10:32;;;;;;;24.10;3.28;;;10.60;32.60;;;;;;5095873;28;20020;-67
2024/01/03 02:12:58;;;;;;;18.05;2.60;;;10.40;54.00;;;;;;5095521;28;20035;-67
2024/01/03 02:15:23;;;;;;;13.50;2.50;;;10.30;67.40;;;;;;5095793;28;20032;-67
2024/01/03 02:17:49;;;;;;;14.77;2.65;;;10.20;81.00;;;;;;5095821;28;20032;-67
2024/01/03 02:20:15;;;;;;;12.40;2.55;;;10.10;90.10;;;;;;5095579;28;20111;-65
2024/01/03 02:22:42;;;;;;;14.77;2.72;;;10.20;58.00;;;;;;5095730;28;20035;-66
2024/01/03 02:25:10;;;;;;;12.77;2.97;;;10.20;53.50;;;;;;5095396;28;20048;-66
2024/01/03 02:27:36;;;;;;;12.27;3.03;;;10.30;61.90;;;;;;5095667;28;20118;-68
2024/01/03 02:30:04;;;;;;;17.63;2.95;;;10.20;81.60;;;;;;5095513;28;20115;-67
2024/01/03 02:32:29;;;;;;;14.80;2.65;;;10.10;93.10;;;;;;5095485;28;20046;-66
2024/01/03 02:34:55;;;;;;;19.30;3.47;;;10.10;96.50;;;;;;5095193;28;20047;-66
2024/01/03 02:37:22;;;;;;;18.25;2.65;;;10.10;96.30;;;;;;5095143;28;20020;-66
2024/01/03 02:39:49;;;;;;;19.05;3.03;;;10.20;96.00;;;;;;5095202;28;20063;-67
2024/01/03 02:42:14;;;;;;;13.00;3.03;;;10.20;97.90;;;;;;5095410;28;20031;-66
2024/01/03 02:44:40;;;;;;;14.05;2.80;;;10.20;98.10;;;;;;5095254;28;20024;-66
2024/01/03 02:47:06;;;;;;;12.15;2.70;;;10.30;98.80;;;;;;5095237;28;20059;-65
2024/01/03 02:49:31;;;;;;;12.85;2.65;;;10.30;99.30;;;;;;5094802;28;20371;-65
2024/01/03 02:52:00;;;;;;;15.27;2.67;;;;;;;;;;5095085;28;20031;-66
2024/01/03 02:54:26;;;;;;;18.50;3.55;;;9.80;99.90;;;;;;5095139;28;20021;-65
2024/01/03 02:56:51;;;;;;;14.32;2.55;;;10.10;99.90;;;;;;5094791;28;20444;-65
2024/01/03 02:59:17;;;;;;;15.40;3.53;;;10.10;99.90;;;;;;5093766;28;20032;-65
2024/01/03 03:01:43;;;;;;;14.52;2.83;;;10.00;99.90;;;;;;5095035;28;20032;-65
2024/01/03 03:04:08;;;;;;;16.63;3.17;;;10.00;99.90;;;;;;5094922;28;20030;-65
2024/01/03 03:06:34;;;;;;;11.93;2.90;;;10.00;99.90;;;;;;5094687;28;20028;-65
2024/01/03 03:08:59;;;;;;;9.68;2.08;;;10.20;99.90;;;;;;5094881;28;20107;-64
2024/01/03 03:11:25;;;;;;;14.40;2.72;;;10.30;99.90;;;;;;5094477;28;20128;-64
2024/01/03 03:13:51;;;;;;;12.45;2.05;;;10.30;99.90;;;;;;5094625;28;20516;-64
2024/01/03 03:16:16;;;;;;;11.25;2.42;;;10.30;99.90;;;;;;5094528;28;20035;-64
2024/01/03 03:18:41;;;;;;;14.27;2.20;;;10.40;99.90;;;;;;5094425;28;20031;-64
2024/01/03 03:21:09;;;;;;;9.88;2.40;;;10.40;99.90;;;;;;5094205;28;20032;-64
2024/01/03 03:23:35;;;;;;;10.25;2.35;;;10.40;99.90;;;;;;5094567;28;20114;-63
2024/01/03 03:26:03;;;;;;;10.93;2.05;;;10.30;99.90;;;;;;5094462;28;20028;-63
2024/01/03 03:28:28;;;;;;;14.88;2.45;;;10.40;99.90;;;;;;5094546;28;20035;-64
2024/01/03 03:30:54;;;;;;;15.02;2.60;;;10.30;99.90;;;;;;5094485;28;20131;-63
2024/01/03 03:33:19;;;;;;;10.38;1.83;;;10.30;99.90;;;;;;5094282;28;20028;-64
2024/01/03 03:35:45;;;;;;;12.15;2.67;;;10.20;99.90;;;;;;5093981;28;20081;-64
2024/01/03 03:38:10;;;;;;;11.07;2.03;;;10.10;99.90;;;;;;5094080;28;20206;-63
2024/01/03 03:40:36;;;;;;;11.02;2.08;;;10.00;99.90;;;;;;5094244;28;20028;-64
2024/01/03 03:43:01;;;;;;;9.32;1.92;;;10.00;99.90;;;;;;5094229;28;20032;-65
2024/01/03 03:45:27;;;;;;;12.43;2.78;;;10.00;99.90;;;;;;5094210;28;20111;-65
2024/01/03 03:47:53;;;;;;;16.25;3.28;;;9.80;99.90;;;;;;5093965;28;20077;-65
2024/01/03 03:50:18;;;;;;;16.00;2.95;;;9.70;99.90;;;;;;5094192;28;20044;-64
2024/01/03 03:52:44;;;;;;;15.20;2.75;;;9.60;99.90;;;;;;5094028;28;20032;-64
2024/01/03 03:55:11;;;;;;;9.45;2.53;;;9.60;99.90;;;;;;5093970;28;20111;-65
2024/01/03 03:57:36;;;;;;;13.00;3.20;;;9.60;99.90;;;;;;5093854;28;20091;-64
2024/01/03 04:00:04;;;;;;;11.55;2.53;;;9.70;99.90;;;;;;5093965;28;20085;-64
2024/01/03 04:02:30;;;;;;;11.02;2.78;;;9.80;99.90;;;;;;5093630;28;20031;-64
2024/01/03 04:04:56;;;;;;;13.05;2.72;;;9.80;99.90;;;;;;5093895;28;20444;-65
2024/01/03 04:07:21;;;;;;;11.90;2.38;;;9.90;99.90;;;;;;5093680;28;20024;-65
2024/01/03 04:09:47;;;;;;;11.73;1.90;;;9.90;99.90;;;;;;5093696;28;20067;-64
2024/01/03 04:12:12;;;;;;;9.90;2.47;;;9.90;99.90;;;;;;5093523;28;20051;-65
2024/01/03 04:14:38;;;;;;;16.00;2.47;;;9.90;99.90;;;;;;5093674;28;20111;-64
2024/01/03 04:17:03;;;;;;;8.02;1.83;;;9.90;99.90;;;;;;5093649;28;20462;-65
2024/01/03 04:19:30;;;;;;;13.70;2.15;;;9.90;99.90;;;;;;5093726;28;20127;-64
2024/01/03 04:21:57;;;;;;;10.90;2.25;;;10.00;99.90;;;;;;5093515;28;20032;-64
2024/01/03 04:24:22;;;;;;;10.45;2.00;;;10.00;99.90;;;;;;5093733;28;20031;-64
2024/01/03 04:26:48;;;;;;;14.55;2.00;;;10.00;99.90;;;;;;5093571;28;20104;-64
2024/01/03 04:29:13;;;;;;;8.07;1.95;;;9.90;99.90;;;;;;5093317;28;20073;-64
2024/01/03 04:31:39;;;;;;;11.10;2.10;;;10.00;99.90;;;;;;5093537;28;20030;-63
2024/01/03 04:34:05;;;;;;;10.18;1.95;;;10.00;99.90;;;;;;5093285;28;20032;-64
2024/01/03 04:36:30;;;;;;;10.82;2.28;;;9.90;99.90;;;;;;5092838;28;20040;-64
2024/01/03 04:38:56;;;;;;;10.15;2.38;;;9.90;99.90;;;;;;5093466;28;20028;-64
2024/01/03 04:41:21;;;;;;;14.38;3.10;;;9.90;99.90;;;;;;5093337;28;20024;-64
2024/01/03 04:43:47;;;;;;;13.18;2.60;;;9.90;99.90;;;;;;5093124;28;20154;-64
2024/01/03 04:46:12;;;;;;;10.80;2.00;;;9.90;99.90;;;;;;5093027;28;20032;-63
2024/01/03 04:48:38;;;;;;;20.25;3.45;;;9.90;99.90;;;;;;5093296;28;20032;-64
2024/01/03 04:51:04;;;;;;;11.18;2.38;;;10.00;99.90;;;;;;5093136;28;20028;-64
2024/01/03 04:53:29;;;;;;;11.30;2.63;;;9.90;99.90;;;;;;5093184;28;20542;-64
2024/01/03 04:55:55;;;;;;;16.58;2.20;;;9.90;99.90;;;;;;5093066;28;20481;-64
2024/01/03 04:58:20;;;;;;;12.00;2.20;;;9.90;99.90;;;;;;5093112;28;20553;-65
2024/01/03 05:00:46;;;;;;;13.20;2.83;;;9.90;99.90;;;;;;5093118;28;20445;-64
2024/01/03 05:03:11;;;;;;;8.63;2.17;;;10.00;99.90;;;;;;5093219;28;20482;-64
2024/01/03 05:05:37;;;;;;;9.48;2.25;;;10.20;99.90;;;;;;5092827;28;20028;-64
2024/01/03 05:08:03;;;;;;;11.65;2.50;;;10.10;99.90;;;;;;5092753;28;20028;-64
2024/01/03 05:10:28;;;;;;;10.27;1.95;;;10.10;99.90;;;;;;5093009;28;20028;-64
2024/01/03 05:12:54;;;;;;;7.45;2.10;;;9.90;99.90;;;;;;5092687;28;20030;-63
2024/01/03 05:15:19;;;;;;;17.15;2.88;;;9.80;99.90;;;;;;5092843;28;20028;-65
2024/01/03 05:17:46;;;;;;;14.43;2.22;;;9.80;99.90;;;;;;5093038;28;20024;-63
2024/01/03 05:20:12;;;;;;;13.45;2.38;;;9.80;99.90;;;;;;5093087;28;20440;-64
2024/01/03 05:22:37;;;;;;;10.75;2.10;;;9.80;99.90;;;;;;5094713;28;20031;-63
2024/01/03 05:25:06;;;;;;;12.07;2.13;;;9.90;99.90;;;;;;5096547;28;20400;-63
2024/01/03 05:27:31;;;;;;;15.23;2.10;;;10.00;99.90;;;;;;5096673;28;20410;-64
2024/01/03 05:29:57;;;;;;;11.07;2.42;;;10.00;99.90;;;;;;5096670;28;20028;-63
2024/01/03 05:32:23;;;;;;;9.77;1.98;;;10.00;99.90;;;;;;5096615;28;20101;-64
2024/01/03 05:34:48;;;;;;;10.02;2.13;;;9.90;99.90;;;;;;5096333;28;20032;-63
2024/01/03 05:37:14;;;;;;;16.70;2.83;;;9.90;99.90;;;;;;5096390;28;20394;-63
2024/01/03 05:39:39;;;;;;;13.35;2.40;;;9.90;99.90;;;;;;5096635;28;20060;-63
2024/01/03 05:42:05;;;;;;;8.80;2.30;;;10.00;99.90;;;;;;5096353;28;20106;-63
2024/01/03 05:44:31;;;;;;;12.68;1.92;;;10.10;99.90;;;;;;5096398;28;20028;-63
2024/01/03 05:46:56;;;;;;;10.15;1.92;;;10.20;99.90;;;;;;5096181;28;20024;-63
2024/01/03 05:49:22;;;;;;;9.30;2.03;;;10.20;99.90;;;;;;5096326;28;20081;-63
2024/01/03 05:51:47;;;;;;;11.43;2.28;;;10.30;99.90;;;;;;5096253;28;20039;-66
2024/01/03 05:54:13;;;;;;;11.52;2.20;;;10.40;87.80;;;;;;5096002;28;20028;-64
2024/01/03 05:56:38;;;;;;;8.48;2.55;;;10.40;85.50;;;;;;5096016;28;20028;-64
2024/01/03 05:59:04;;;;;;;10.35;2.05;;;10.40;74.30;;;;;;5096161;28;20085;-64
2024/01/03 06:01:29;;;;;;;9.38;2.58;;;10.40;78.30;;;;;;5095983;28;20028;-65
2024/01/03 06:03:55;;;;;;;9.95;1.95;;;10.40;82.30;;;;;;5096118;28;20028;-63
2024/01/03 06:06:20;;;;;;;12.35;2.05;;;10.40;78.80;;;;;;5096032;28;20051;-65
2024/01/03 06:08:46;;;;;;;9.48;2.78;;;10.40;69.10;;;;;;5096118;28;20446;-64
2024/01/03 06:11:12;;;;;;;9.48;2.42;;;10.40;63.50;;;;;;5096076;28;20028;-64
2024/01/03 06:13:38;;;;;;;8.50;2.15;;;10.40;60.00;;;;;;5095958;28;20028;-64
2024/01/03 06:16:04;;;;;;;8.52;1.67;;;10.40;54.20;;;;;;5095664;28;20389;-64
2024/01/03 06:18:30;;;;;;;12.02;2.30;;;10.40;55.20;;;;;;5095778;28;20069;-64
2024/01/03 06:20:55;;;;;;;6.00;1.92;;;10.40;48.30;;;;;;5095808;28;20028;-64
2024/01/03 06:23:21;;;;;;;7.95;1.67;;;10.50;41.60;;;;;;5095600;28;20034;-66
2024/01/03 06:25:47;;;;;;;11.23;1.83;;;10.40;53.00;;;;;;5095683;28;20070;-65
2024/01/03 06:28:12;;;;;;;7.10;1.38;;;10.40;39.70;;;;;;5095469;28;20028;-65
2024/01/03 06:30:38;;;;;;;7.95;1.40;;;10.50;44.00;;;;;;5095427;28;20027;-65
2024/01/03 06:33:03;;;;;;;9.43;1.83;;;10.40;49.00;;;;;;5095070;28;20024;-65
2024/01/03 06:35:30;;;;;;;9.82;2.05;;;10.40;46.10;;;;;;5095110;28;20044;-65
2024/01/03 06:37:56;;;;;;;6.07;1.88;;;10.40;52.40;;;;;;5095109;28;20023;-65
2024/01/03 06:40:21;;;;;;;7.22;1.60;;;10.40;56.90;;;;;;5095481;28;20028;-66
2024/01/03 06:42:47;;;;;;;6.97;1.83;;;10.30;67.40;;;;;;5095420;28;20136;-65
2024/01/03 06:45:13;;;;;;;3.60;1.13;;;10.30;67.90;;;;;;5094842;28;20020;-65
2024/01/03 06:47:41;;;;;;;5.95;1.30;;;10.30;79.10;;;;;;5095286;28;20472;-64
2024/01/03 06:50:07;;;;;;;6.72;1.20;;;10.30;89.20;;;;;;5095263;28;20028;-65
2024/01/03 06:52:32;;;;;;;7.40;1.92;;;10.20;96.40;;;;;;5095212;28;20097;-64
2024/01/03 06:54:58;;;;;;;8.25;1.50;;;10.20;99.60;;;;;;5095149;28;20077;-64
2024/01/03 06:57:24;;;;;;;8.52;1.90;;;10.30;99.90;;;;;;5095299;28;20028;-64
2024/01/03 06:59:49;;;;;;;6.57;1.40;;;10.20;99.90;;;;;;5095008;28;20035;-63
2024/01/03 07:02:15;;;;;;;9.30;2.22;;;10.30;99.90;;;;;;5092945;28;20056;-64
2024/01/03 07:04:40;;;;;;;6.50;1.45;;;10.20;99.90;;;;;;5090662;28;20024;-65
2024/01/03 07:07:06;;;;;;;6.15;1.60;;;10.10;99.90;;;;;;5092582;28;20024;-65
2024/01/03 07:09:32;;;;;;;9.90;1.80;;;10.20;99.90;;;;;;5094233;28;20040;-65
2024/01/03 07:11:57;;;;;;;7.35;2.05;;;10.10;99.90;;;;;;5090123;28;20032;-66
2024/01/03 07:14:23;;;;;;;6.13;1.20;;;10.10;99.90;;;;;;5092618;28;20389;-66
2024/01/03 07:16:48;;;;;;;8.75;1.95;;;10.10;99.90;;;;;;5087566;28;20483;-67
2024/01/03 07:19:14;;;;;;;7.10;1.67;;;10.10;99.90;;;;;;5094116;28;20032;-64
2024/01/03 07:21:39;;;;;;;5.45;1.40;;;10.20;99.90;;;;;;5104987;28;20030;-64
2024/01/03 07:24:05;;;;;;;4.22;1.30;;;10.10;99.90;;;;;;5093876;28;20026;-65
2024/01/03 07:26:31;;;;;;;7.57;1.50;;;9.70;99.90;;;;;;5094458;28;20401;-65
2024/01/03 07:28:56;;;;;;;4.35;1.40;;;10.10;99.90;;;;;;5094402;28;20028;-65
2024/01/03 07:31:22;;;;;;;6.65;1.50;;;10.00;99.90;;;;;;5093479;28;20042;-65
2024/01/03 07:33:47;;;;;;;11.45;1.85;;;10.00;99.90;;;;;;5088524;28;20032;-64
2024/01/03 07:36:13;;;;;;;10.75;1.70;;;10.00;99.90;;;;;;5086531;28;20040;-67
2024/01/03 07:38:38;;;;;;;6.20;1.55;;;10.00;99.90;;;;;;5084271;28;20078;-64
2024/01/03 07:41:04;;;;;;;6.18;1.58;;;10.00;99.90;;;;;;5083840;28;20029;-66
2024/01/03 07:43:30;;;;;;;8.63;1.35;;;10.00;99.90;;;;;;5092163;28;20050;-67
2024/01/03 07:45:58;;;;;;;7.85;1.45;;;10.00;99.90;;;;;;5101228;28;20019;-67
2024/01/03 07:48:23;;;;;;;6.35;1.90;;;9.90;99.90;;;;;;5092087;28;20089;-65
2024/01/03 07:50:50;;;;;;;8.75;1.40;;;9.90;99.90;;;;;;5085380;28;20032;-65
2024/01/03 07:53:15;;;;;;;5.35;1.63;;;9.80;99.90;;;;;;5088758;28;20025;-65
2024/01/03 07:55:41;;;;;;;12.15;1.80;;;9.80;99.90;;;;;;5094875;28;20493;-65
2024/01/03 07:58:06;;;;;;;7.07;1.45;;;9.80;99.90;;;;;;5090303;28;20024;-66
2024/01/03 08:00:32;;;;;;;7.40;1.95;;;9.70;99.90;;;;;;5089992;28;20020;-66
2024/01/03 08:02:57;;;;;;;12.05;1.90;;;9.70;99.90;;;;;;5089832;28;20040;-65
2024/01/03 08:05:23;;;;;;;7.57;1.92;;;9.60;99.90;;;;;;5087083;28;20303;-66
2024/01/03 08:07:49;;;;;;;10.27;2.17;;;9.50;99.90;;;;;;5091333;28;20525;-65
2024/01/03 08:10:16;;;;;;;9.60;2.05;;;9.50;99.90;;;;;;5088528;28;20071;-65
2024/01/03 08:12:41;;;;;;;8.32;1.90;;;9.50;99.90;;;;;;5095330;28;20027;-66
2024/01/03 08:15:07;;;;;;;6.95;2.20;;;9.50;99.90;;;;;;5079816;28;20066;-65
2024/01/03 08:17:33;;;;;;;11.80;2.15;;;9.40;99.90;;;;;;5078578;28;20134;-65
2024/01/03 08:19:59;;;;;;;8.18;1.85;;;9.40;99.90;;;;;;5102445;28;20140;-67
2024/01/03 08:22:24;;;;;;;12.98;2.33;;;9.40;99.90;;;;;;5087387;28;20062;-66
2024/01/03 08:24:50;;;;;;;12.10;2.85;;;9.40;99.90;;;;;;5088391;28;20019;-65
2024/01/03 08:27:17;;;;;;;9.20;2.28;;;9.30;99.90;;;;;;5092765;28;20024;-65
2024/01/03 08:29:43;;;;;;;11.38;2.80;;;9.40;99.90;;;;;;5086325;28;20425;-66
2024/01/03 08:32:08;;;;;;;13.45;2.70;;;9.40;99.90;;;;;;5092304;28;20051;-66
2024/01/03 08:34:34;;;;;;;15.90;3.13;;;9.40;99.90;;;;;;5088456;28;20551;-66
2024/01/03 08:36:59;;;;;;;15.07;2.63;;;9.50;99.90;;;;;;5087372;28;20429;-66
2024/01/03 08:39:25;;;;;;;16.33;2.55;;;9.50;99.90;;;;;;5086587;28;20035;-64
2024/01/03 08:41:53;;;;;;;15.75;3.55;;;9.60;99.90;;;;;;5092360;28;20028;-65
2024/01/03 08:44:20;;;;;;;15.98;2.72;;;9.70;99.90;;;;;;5090899;28;20058;-65
2024/01/03 08:46:46;;;;;;;18.05;3.42;;;9.80;99.90;;;;;;5095811;28;20035;-64
2024/01/03 08:49:12;;;;;;;12.73;2.97;;;9.80;99.90;;;;;;5087608;28;20043;-65
2024/01/03 08:51:39;;;;;;;11.88;1.92;;;10.00;99.90;;;;;;5092955;28;20082;-66
2024/01/03 08:54:04;;;;;;;9.05;1.55;;;10.10;99.90;;;;;;5088420;28;20032;-65
2024/01/03 08:56:30;;;;;;;10.60;2.35;;;10.10;99.90;;;;;;5079664;28;20035;-65
2024/01/03 08:58:56;;;;;;;8.07;2.30;;;10.10;99.90;;;;;;5096207;28;20061;-64
2024/01/03 09:01:22;;;;;;;4.75;1.45;;;9.80;99.90;;;;;;5096690;28;20024;-64
2024/01/03 09:03:49;;;;;;;4.88;1.40;;;9.80;99.90;;;;;;5095618;28;20043;-64
2024/01/03 09:06:20;;;;;;;5.07;1.60;;;9.70;99.90;;;;;;5104100;28;20027;-64
2024/01/03 09:08:50;;;;;;;5.28;1.52;;;9.60;99.90;;;;;;5097532;28;20046;-64
2024/01/03 09:11:16;;;;;;;6.30;1.42;;;9.60;99.90;;;;;;5095929;28;20386;-64
2024/01/03 09:13:42;;;;;;;4.65;1.50;;;9.40;99.90;;;;;;5094897;28;20062;-64
2024/01/03 09:16:09;;;;;;;5.95;1.67;;;9.30;99.90;;;;;;5095897;28;20081;-65
2024/01/03 09:18:35;;;;;;;6.38;1.50;;;9.20;99.90;;;;;;5096229;28;20016;-64
2024/01/03 09:21:03;;;;;;;1.73;1.40;;;9.30;99.90;;;;;;5096238;28;20028;-65
2024/01/03 09:23:29;;;;;;;3.17;1.75;;;9.20;99.90;;;;;;5094816;28;20023;-63
2024/01/03 09:25:55;;;;;;;2.55;1.15;;;9.20;99.90;;;;;;5095963;28;20035;-65
2024/01/03 09:28:21;;;;;;;4.13;1.25;;;9.10;99.90;;;;;;5095899;28;20046;-66
2024/01/03 09:30:47;;;;;;;5.10;1.02;;;9.10;99.90;;;;;;5081744;28;20059;-65
2024/01/03 09:33:13;;;;;;;4.60;1.38;;;9.10;99.90;;;;;;5075956;28;20074;-64
2024/01/03 09:35:38;;;;;;;7.13;1.65;;;9.00;99.90;;;;;;5089098;28;20055;-64
2024/01/03 09:38:05;;;;;;;4.80;1.50;;;9.00;99.90;;;;;;5095761;28;20031;-64
2024/01/03 09:40:33;;;;;;;3.90;1.52;;;9.10;99.90;;;;;;5096285;28;20076;-64
2024/01/03 09:43:01;;;;;;;5.35;1.70;;;9.10;99.90;;;;;;5095893;28;20048;-64
2024/01/03 09:45:27;;;;;;;4.80;1.50;;;9.10;99.90;;;;;;5093230;28;20028;-63
2024/01/03 09:47:53;;;;;;;7.32;1.60;;;9.10;99.90;;;;;;5094076;28;20034;-64
2024/01/03 09:50:18;;;;;;;8.65;1.92;;;9.10;99.90;;;;;;5095442;28;20028;-63
2024/01/03 09:52:45;;;;;;;7.50;2.08;;;9.10;99.90;;;;;;5095281;28;20059;-63
2024/01/03 09:55:11;;;;;;;5.22;1.73;;;9.10;99.90;;;;;;5095567;28;20056;-63
2024/01/03 09:57:38;;;;;;;7.05;2.55;;;9.10;99.90;;;;;;5095548;28;20016;-63
2024/01/03 10:00:05;;;;;;;7.35;1.60;;;9.10;99.90;;;;;;5092740;28;20020;-63
2024/01/03 10:02:30;;;;;;;5.95;2.47;;;9.10;99.90;;;;;;5094947;28;20016;-64
2024/01/03 10:04:56;;;;;;;10.13;2.50;;;9.10;99.90;;;;;;5094328;28;20435;-64
2024/01/03 10:07:36;;;;;;;9.85;2.70;;;9.10;99.90;;;;;;5094586;28;20099;-64
2024/01/03 10:10:03;;;;;;;9.13;2.90;;;9.10;99.90;;;;;;5092798;28;20028;-63
2024/01/03 10:12:32;;;;;;;11.98;3.25;;;9.10;99.90;;;;;;5094819;28;20024;-64
2024/01/03 10:15:14;;;;;;;12.93;3.00;;;9.10;99.90;;;;;;5094351;28;20028;-64
2024/01/03 10:17:39;;;;;;;15.70;3.55;;;9.10;99.90;;;;;;5093597;28;20028;-64
2024/01/03 10:20:24;;;;;;;14.48;3.33;;;9.10;99.90;;;;;;5095183;28;20035;-64
2024/01/03 10:23:03;;;;;;;11.73;3.10;;;9.20;99.90;;;;;;5094131;28;20057;-65
2024/01/03 10:25:29;;;;;;;15.55;2.80;;;9.30;99.90;;;;;;5093282;28;20378;-64
2024/01/03 10:28:01;;;;;;;16.70;3.28;;;9.30;99.90;;;;;;5095170;28;20038;-65
2024/01/03 10:30:26;;;;;;;21.60;4.28;;;9.40;99.90;;;;;;5091746;28;20166;-64
2024/01/03 10:33:01;;;;;;;12.48;3.25;;;9.40;99.90;;;;;;5090444;28;20123;-66
2024/01/03 10:35:28;;;;;;;17.67;3.70;;;9.40;99.90;;;;;;5087647;28;20049;-65
2024/01/03 10:37:56;;;;;;;20.70;4.35;;;9.40;99.90;;;;;;5087267;28;20024;-66
2024/01/03 10:40:24;;;;;;;21.30;4.05;;;9.40;99.90;;;;;;5091731;28;20420;-65
2024/01/03 10:42:51;;;;;;;14.15;3.10;;;9.40;99.90;;;;;;5090887;28;20020;-65
2024/01/03 10:45:17;;;;;;;16.38;3.58;;;9.30;99.90;;;;;;5093500;28;20074;-65
2024/01/03 10:47:43;;;;;;;14.90;3.83;;;9.30;99.90;;;;;;5094854;28;20023;-66
2024/01/03 10:50:10;;;;;;;16.13;3.65;;;9.30;99.90;;;;;;5094082;28;20413;-67
2024/01/03 10:52:37;;;;;;;20.98;4.93;;;9.30;99.90;;;;;;5094271;28;20389;-65
2024/01/03 10:55:06;;;;;;;19.15;4.25;;;9.30;99.90;;;;;;5091859;28;20028;-66
2024/01/03 10:57:35;;;;;;;18.80;3.92;;;9.30;99.90;;;;;;5092443;28;20381;-65
2024/01/03 11:00:25;;;;;;;12.50;4.05;;;9.30;99.90;;;;;;5093483;28;20065;-65
2024/01/03 11:03:10;;;;;;;15.70;3.83;;;9.30;99.90;;;;;;5093000;28;20027;-66
2024/01/03 11:05:46;;;;;;;15.13;3.38;;;9.40;99.90;;;;;;5094420;28;20038;-66
2024/01/03 11:08:14;;;;;;;18.00;3.13;;;9.50;99.90;;;;;;5093917;28;20024;-66
2024/01/03 11:10:49;;;;;;;19.40;3.33;;;9.70;99.90;;;;;;5092246;28;20482;-66
2024/01/03 11:13:32;;;;;;;12.07;3.05;;;9.80;99.90;;;;;;5110009;28;20028;-66
2024/01/03 11:15:58;;;;;;;15.23;3.27;;;9.80;99.90;;;;;;5102051;28;20028;-66
2024/01/03 11:23:59;;;;;;;15.95;3.28;;;10.20;99.90;;;;;;5107835;27;20133;-64
2024/01/03 11:26:55;;;;;;;15.82;3.17;;;10.60;99.90;;;;;;5109332;28;20031;-64
2024/01/03 11:29:44;;;;;;;11.77;2.58;;;10.60;99.90;;;;;;5108970;28;20100;-64
2024/01/03 11:32:30;;;;;;;13.45;2.58;;;10.60;99.90;;;;;;5109459;28;20035;-64
2024/01/03 11:34:57;;;;;;;17.25;2.83;;;;;;;;;;5109687;28;20035;-65
2024/01/03 11:40:06;;;;;;;13.68;2.97;;;;;;;;;;5089035;27;20412;-64
2024/01/03 11:42:34;;;;;;;12.32;3.38;;;10.50;99.90;;;;;;5069609;28;20029;-64
2024/01/03 11:45:02;;;;;;;17.83;2.95;;;10.50;99.90;;;;;;5068208;28;20086;-64
2024/01/03 11:47:28;;;;;;;11.75;2.85;;;10.60;99.90;;;;;;5069506;28;20036;-66
2024/01/03 11:49:56;;;;;;;16.35;3.55;;;10.60;99.90;;;;;;5070169;28;20029;-65
2024/01/03 11:52:22;;;;;;;16.35;3.08;;;10.60;99.90;;;;;;5070704;28;20036;-66
2024/01/03 11:54:50;;;;;;;15.13;3.22;;;10.70;99.90;;;;;;5069328;28;20025;-65
2024/01/03 11:57:19;;;;;;;11.85;3.70;;;10.70;94.60;;;;;;5066770;28;20060;-66
2024/01/03 11:59:45;;;;;;;13.85;3.25;;;11.00;93.20;;;;;;5065225;28;20478;-65
2024/01/03 12:02:12;;;;;;;10.75;2.95;;;10.60;92.60;;;;;;5068027;28;20086;-67
2024/01/03 12:04:41;;;;;;;13.38;2.45;;;10.60;92.10;;;;;;5068556;28;20029;-67
2024/01/03 12:07:07;;;;;;;14.52;3.03;;;10.60;95.00;;;;;;5065424;28;20379;-67
2024/01/03 12:09:33;;;;;;;14.98;3.15;;;10.70;87.90;;;;;;5066813;28;20025;-68
2024/01/03 12:11:59;;;;;;;14.38;3.20;;;10.70;94.20;;;;;;5069320;28;20486;-66
2024/01/03 12:14:24;;;;;;;14.68;3.33;;;10.70;96.00;;;;;;5069390;28;20071;-67
2024/01/03 12:16:55;;;;;;;12.38;2.75;;;10.80;71.20;;;;;;5069414;28;20069;-67
2024/01/03 12:19:26;;;;;;;14.13;2.97;;;10.80;66.10;;;;;;5069591;28;20032;-67
2024/01/03 12:21:53;;;;;;;17.60;3.40;;;10.80;75.20;;;;;;5069214;28;20033;-67
2024/01/03 12:24:19;;;;;;;14.38;2.97;;;10.70;84.20;;;;;;5069423;28;20091;-67
2024/01/03 12:26:49;;;;;;;10.73;2.45;;;10.70;80.90;;;;;;5069222;28;20037;-68
2024/01/03 12:29:15;;;;;;;13.60;3.38;;;10.70;73.40;;;;;;5068460;28;20028;-67
2024/01/03 12:31:40;;;;;;;10.10;2.40;;;10.70;85.80;;;;;;5069379;28;20094;-67
2024/01/03 12:34:06;;;;;;;20.83;3.25;;;10.70;82.60;;;;;;5068876;28;20032;-66
2024/01/03 12:36:32;;;;;;;13.65;2.65;;;10.70;90.30;;;;;;5068652;28;20025;-66
2024/01/03 12:38:58;;;;;;;13.65;2.97;;;10.70;89.70;;;;;;5068489;28;20045;-67
2024/01/03 12:41:24;;;;;;;15.02;2.78;;;10.70;91.10;;;;;;5068759;28;20083;-66
2024/01/03 12:43:49;;;;;;;16.40;2.80;;;10.70;87.10;;;;;;5068914;28;20037;-66
2024/01/03 12:46:15;;;;;;;13.38;2.45;;;10.60;84.90;;;;;;5067895;28;20033;-66
2024/01/03 12:48:40;;;;;;;15.27;3.00;;;10.70;84.80;;;;;;5068248;28;20025;-67
2024/01/03 12:51:06;;;;;;;19.02;3.67;;;10.80;77.50;;;;;;5057019;28;20025;-68
2024/01/03 12:53:32;;;;;;;20.88;3.47;;;10.90;61.20;;;;;;5052868;28;20033;-68
2024/01/03 12:55:57;;;;;;;17.45;2.80;;;10.90;51.80;;;;;;5053843;28;20483;-66
2024/01/03 12:58:23;;;;;;;15.13;2.97;;;10.90;49.00;;;;;;5052770;28;20037;-67
2024/01/03 13:00:48;;;;;;;16.85;2.78;;;10.90;56.60;;;;;;5053896;28;20058;-68